createdAt,value
2023-06-29T04:17:33.461Z,3.90
2023-06-29T04:20:37.546Z,3.92
2023-06-29T04:23:40.152Z,3.65
2023-06-29T04:26:42.959Z,3.78
2023-06-29T04:29:45.575Z,3.72
2023-06-29T04:32:48.579Z,3.78
2023-06-29T04:35:51.196Z,3.60
2023-06-29T04:39:01.801Z,3.95
2023-06-29T04:42:05.841Z,3.70
2023-06-29T04:45:09.243Z,3.58
2023-06-29T04:48:11.748Z,3.30
2023-06-29T04:51:16.271Z,3.62
2023-06-29T04:54:18.924Z,3.80
2023-06-29T04:57:21.760Z,3.50
2023-06-29T05:00:24.267Z,4.05
2023-06-29T05:03:27.780Z,4.30
2023-06-29T05:06:30.368Z,3.67
2023-06-29T05:09:33.238Z,3.50
2023-06-29T05:12:35.793Z,3.92
2023-06-29T05:15:38.685Z,3.78
2023-06-29T05:18:41.293Z,3.70
2023-06-29T05:21:44.108Z,3.80
2023-06-29T05:24:46.579Z,3.20
2023-06-29T05:27:49.456Z,3.35
2023-06-29T05:30:52.191Z,2.60
2023-06-29T05:33:55.167Z,3.28
2023-06-29T05:37:00.070Z,3.20
2023-06-29T05:40:03.292Z,3.10
2023-06-29T05:43:05.941Z,2.70
2023-06-29T05:46:09.030Z,3.08
2023-06-29T05:49:11.571Z,2.47
2023-06-29T05:52:14.420Z,2.53
2023-06-29T05:55:17.073Z,2.50
2023-06-29T05:58:20.052Z,2.60
2023-06-29T06:01:22.774Z,2.53
2023-06-29T06:04:25.943Z,2.33
2023-06-29T06:07:32.104Z,2.35
2023-06-29T06:10:35.152Z,2.67
2023-06-29T06:13:37.755Z,2.20
2023-06-29T06:16:40.931Z,2.40
2023-06-29T06:19:44.054Z,2.55
2023-06-29T06:22:47.328Z,2.95
2023-06-29T06:25:50.095Z,2.42
2023-06-29T06:28:53.096Z,2.50
2023-06-29T06:31:56.373Z,2.33
2023-06-29T06:34:59.329Z,2.70
2023-06-29T06:38:01.859Z,2.58
2023-06-29T06:41:04.819Z,2.55
2023-06-29T06:44:07.497Z,2.78
2023-06-29T06:47:10.614Z,2.90
2023-06-29T06:50:13.243Z,3.00
2023-06-29T06:53:16.149Z,2.87
2023-06-29T06:56:18.779Z,3.40
2023-06-29T06:59:21.637Z,3.08
2023-06-29T07:02:24.587Z,3.10
2023-06-29T07:05:27.580Z,3.25
2023-06-29T07:08:31.140Z,3.40
2023-06-29T07:11:37.717Z,3.10
2023-06-29T07:14:40.520Z,2.95
2023-06-29T07:17:43.629Z,3.40
2023-06-29T07:26:57.394Z,2.90
2023-06-29T07:30:02.938Z,3.05
2023-06-29T07:33:05.572Z,3.62
2023-06-29T07:36:09.333Z,2.97
2023-06-29T07:39:12.108Z,3.30
2023-06-29T07:42:23.467Z,2.75
2023-06-29T07:45:32.980Z,3.20
2023-06-29T07:48:36.134Z,3.42
2023-06-29T07:51:38.879Z,3.42
2023-06-29T07:54:42.379Z,3.17
2023-06-29T08:00:50.716Z,3.10
2023-06-29T08:04:02.098Z,3.10
2023-06-29T08:07:10.096Z,3.10
2023-06-29T08:10:13.489Z,2.80
2023-06-29T08:13:19.319Z,3.00
2023-06-29T08:16:23.296Z,3.75
2023-06-29T08:19:25.858Z,2.90
2023-06-29T08:22:28.691Z,3.10
2023-06-29T08:25:31.225Z,3.00
2023-06-29T08:28:34.059Z,2.78
2023-06-29T08:31:36.722Z,2.75
2023-06-29T08:34:39.588Z,2.75
2023-06-29T08:37:42.317Z,3.42
2023-06-29T08:40:50.390Z,3.12
2023-06-29T08:43:53.010Z,2.80
2023-06-29T08:47:00.087Z,2.50
2023-06-29T08:50:05.621Z,2.83
2023-06-29T08:53:08.993Z,2.87
2023-06-29T08:56:13.119Z,2.65
2023-06-29T08:59:16.508Z,2.80
2023-06-29T09:02:19.430Z,3.10
2023-06-29T09:05:23.038Z,2.85
2023-06-29T09:08:25.912Z,2.90
2023-06-29T09:11:28.788Z,2.87
2023-06-29T09:14:36.672Z,3.20
2023-06-29T09:17:45.816Z,3.40
2023-06-29T09:20:51.421Z,2.47
2023-06-29T09:23:57.669Z,2.67
2023-06-29T09:27:00.876Z,3.03
2023-06-29T09:30:06.061Z,3.25
2023-06-29T09:33:11.016Z,2.25
2023-06-29T09:36:14.148Z,2.60
2023-06-29T09:39:18.868Z,3.08
2023-06-29T09:42:22.111Z,2.70
2023-06-29T09:45:29.362Z,2.75
2023-06-29T09:51:39.605Z,2.75
2023-06-29T09:54:43.220Z,2.47
2023-06-29T09:57:54.168Z,2.70
2023-06-29T10:00:59.580Z,2.75
2023-06-29T10:04:05.832Z,2.70
2023-06-29T10:07:19.614Z,2.75
2023-06-29T10:10:24.881Z,3.70
2023-06-29T10:13:30.324Z,3.55
2023-06-29T10:16:36.182Z,2.70
2023-06-29T10:19:41.157Z,2.78
2023-06-29T10:22:45.650Z,2.97
2023-06-29T10:25:50.088Z,3.15
2023-06-29T10:28:53.517Z,2.45
2023-06-29T10:31:59.878Z,2.80
2023-06-29T10:35:02.807Z,2.40
2023-06-29T10:38:13.541Z,2.33
2023-06-29T10:41:30.059Z,2.30
2023-06-29T10:44:35.792Z,2.70
2023-06-29T10:47:39.642Z,2.50
2023-06-29T10:50:44.798Z,2.40
2023-06-29T10:53:49.703Z,2.50
2023-06-29T10:57:03.561Z,2.50
2023-06-29T11:00:07.104Z,2.70
2023-06-29T11:03:11.149Z,2.40
2023-06-29T11:06:24.734Z,2.47
2023-06-29T11:09:31.687Z,2.40
2023-06-29T11:12:36.855Z,2.58
2023-06-29T11:15:39.878Z,2.50
2023-06-29T11:18:49.285Z,2.80
2023-06-29T11:21:55.374Z,2.50
2023-06-29T11:24:58.265Z,2.60
2023-06-29T11:28:02.075Z,2.67
2023-06-29T11:39:14.118Z,2.55
2023-06-29T11:42:24.746Z,2.78
2023-06-29T11:45:27.408Z,2.70
2023-06-29T11:48:31.279Z,2.67
2023-06-29T11:51:35.421Z,2.53
2023-06-29T11:54:39.742Z,2.70
2023-06-29T11:57:44.925Z,2.90
2023-06-29T12:00:56.980Z,2.65
2023-06-29T12:03:59.966Z,2.47
2023-06-29T12:07:03.692Z,2.60
2023-06-29T12:10:12.709Z,2.65
2023-06-29T12:13:16.277Z,2.50
2023-06-29T12:19:32.346Z,2.83
2023-06-29T12:22:35.365Z,2.40
2023-06-29T12:25:47.404Z,2.85
2023-06-29T12:28:50.572Z,2.60
2023-06-29T12:31:59.798Z,2.78
2023-06-29T12:35:02.824Z,2.65
2023-06-29T12:38:05.951Z,2.67
2023-06-29T12:41:08.893Z,2.55
2023-06-29T12:44:11.485Z,2.80
2023-06-29T12:47:14.312Z,2.83
2023-06-29T12:50:18.741Z,2.80
2023-06-29T12:53:21.703Z,2.80
2023-06-29T12:56:26.336Z,2.37
2023-06-29T12:59:29.245Z,2.92
2023-06-29T13:02:33.075Z,2.85
2023-06-29T13:05:36.060Z,2.67
2023-06-29T13:08:38.583Z,2.70
2023-06-29T13:11:45.495Z,2.75
2023-06-29T13:14:50.892Z,2.75
2023-06-29T13:17:53.979Z,2.97
2023-06-29T13:20:56.556Z,2.78
2023-06-29T13:23:59.527Z,2.80
2023-06-29T13:27:04.564Z,2.80
2023-06-29T13:30:08.852Z,3.00
2023-06-29T13:33:11.412Z,2.58
2023-06-29T13:36:14.391Z,2.87
2023-06-29T13:39:16.920Z,2.45
2023-06-29T13:42:19.708Z,3.05
2023-06-29T13:45:22.607Z,2.50
2023-06-29T13:48:25.616Z,2.62
2023-06-29T13:51:30.112Z,2.87
2023-06-29T13:54:32.971Z,3.00
2023-06-29T13:57:35.510Z,2.70
2023-06-29T14:00:38.370Z,2.60
2023-06-29T14:03:41.261Z,2.60
2023-06-29T14:06:44.400Z,3.20
2023-06-29T14:09:47.267Z,2.65
2023-06-29T14:12:49.820Z,3.10
2023-06-29T14:15:52.596Z,2.50
2023-06-29T14:18:55.856Z,2.92
2023-06-29T14:21:58.694Z,2.60
2023-06-29T14:25:01.250Z,2.80
2023-06-29T14:28:04.276Z,2.80
2023-06-29T14:31:07.102Z,2.58
2023-06-29T14:34:10.118Z,2.53
2023-06-29T14:37:12.771Z,2.60
2023-06-29T14:40:15.582Z,2.80
2023-06-29T14:43:19.346Z,2.60
2023-06-29T14:46:22.348Z,2.55
2023-06-29T14:49:25.049Z,2.60
2023-06-29T14:52:28.021Z,2.72
2023-06-29T14:55:30.624Z,2.85
2023-06-29T14:58:33.803Z,2.92
2023-06-29T15:01:36.420Z,2.80
2023-06-29T15:04:39.584Z,3.00
2023-06-29T15:07:42.657Z,2.70
2023-06-29T15:10:45.558Z,2.75
2023-06-29T15:13:48.121Z,3.20
2023-06-29T15:16:50.945Z,2.95
2023-06-29T15:19:54.633Z,2.87
2023-06-29T15:22:57.559Z,3.08
2023-06-29T15:26:00.137Z,2.87
